createdAt,value
2023-08-08T00:00:54.827Z,15.73
2023-08-08T00:03:21.351Z,18.60
2023-08-08T00:05:47.826Z,12.63
2023-08-08T00:08:14.113Z,19.42
2023-08-08T00:10:40.483Z,16.92
2023-08-08T00:13:06.797Z,14.18
2023-08-08T00:15:33.968Z,15.38
2023-08-08T00:18:00.426Z,11.75
2023-08-08T00:20:26.801Z,17.52
2023-08-08T00:22:53.246Z,16.38
2023-08-08T00:25:19.672Z,12.15
2023-08-08T00:27:46.047Z,19.00
2023-08-08T00:30:14.340Z,12.63
2023-08-08T00:32:40.812Z,10.88
2023-08-08T00:35:07.364Z,17.33
2023-08-08T00:37:33.978Z,15.75
2023-08-08T00:40:00.359Z,14.15
2023-08-08T00:42:26.745Z,14.68
2023-08-08T00:44:53.263Z,19.02
2023-08-08T00:47:19.731Z,15.35
2023-08-08T00:49:47.725Z,18.48
2023-08-08T00:52:14.243Z,18.27
2023-08-08T00:54:41.313Z,17.48
2023-08-08T00:57:07.712Z,17.35
2023-08-08T00:59:34.132Z,18.20
2023-08-08T01:02:00.754Z,21.52
2023-08-08T01:04:28.011Z,13.60
2023-08-08T01:07:12.656Z,21.13
2023-08-08T01:10:08.476Z,17.25
2023-08-08T01:12:40.393Z,17.60
2023-08-08T01:15:08.014Z,23.08
2023-08-08T01:17:35.508Z,24.83
2023-08-08T01:20:03.061Z,14.60
2023-08-08T01:22:33.758Z,12.07
2023-08-08T01:25:00.583Z,25.02
2023-08-08T01:27:26.980Z,17.95
2023-08-08T01:29:54.036Z,28.48
2023-08-08T01:32:20.386Z,22.55
2023-08-08T01:34:46.734Z,17.92
2023-08-08T01:37:19.178Z,15.90
2023-08-08T01:39:47.184Z,15.90
2023-08-08T01:42:14.635Z,22.80
2023-08-08T01:44:42.268Z,20.25
2023-08-08T01:47:09.089Z,20.52
2023-08-08T01:49:35.385Z,24.55
2023-08-08T01:52:01.952Z,23.23
2023-08-08T01:54:28.439Z,21.08
2023-08-08T01:56:54.759Z,17.25
2023-08-08T01:59:21.152Z,25.13
2023-08-08T02:01:47.494Z,20.70
2023-08-08T02:04:14.028Z,17.50
2023-08-08T02:06:40.360Z,13.13
2023-08-08T02:09:07.047Z,22.95
2023-08-08T02:11:33.478Z,13.13
2023-08-08T02:13:59.816Z,24.05
2023-08-08T02:16:26.121Z,20.60
2023-08-08T02:18:52.460Z,24.30
2023-08-08T02:21:18.880Z,17.10
2023-08-08T02:23:45.177Z,13.38
2023-08-08T02:26:11.499Z,17.90
2023-08-08T02:28:37.839Z,26.20
2023-08-08T02:31:04.145Z,21.92
2023-08-08T02:33:30.546Z,25.77
2023-08-08T02:35:57.281Z,19.73
2023-08-08T02:38:23.639Z,21.05
2023-08-08T02:40:50.028Z,21.38
2023-08-08T02:43:17.671Z,19.42
2023-08-08T02:45:44.098Z,14.13
2023-08-08T02:48:10.622Z,17.55
2023-08-08T02:50:36.983Z,18.30
2023-08-08T02:53:03.394Z,16.25
2023-08-08T02:55:29.732Z,21.30
2023-08-08T02:57:56.054Z,27.80
2023-08-08T03:00:22.400Z,14.38
2023-08-08T03:02:48.697Z,16.30
2023-08-08T03:05:15.087Z,23.77
2023-08-08T03:07:41.453Z,15.27
2023-08-08T03:10:07.955Z,17.17
2023-08-08T03:12:34.372Z,19.08
2023-08-08T03:15:00.715Z,16.80
2023-08-08T03:17:27.086Z,16.50
2023-08-08T03:19:53.533Z,16.52
2023-08-08T03:22:19.969Z,14.88
2023-08-08T03:24:46.412Z,16.38
2023-08-08T03:27:12.761Z,18.13
2023-08-08T03:29:39.196Z,16.42
2023-08-08T03:32:06.133Z,13.63
2023-08-08T03:34:32.867Z,17.50
2023-08-08T03:37:00.506Z,15.57
2023-08-08T03:39:27.571Z,16.73
2023-08-08T03:41:53.991Z,33.60
2023-08-08T03:44:20.349Z,23.80
2023-08-08T03:46:46.905Z,20.77
2023-08-08T03:49:13.442Z,18.80
2023-08-08T03:51:39.896Z,24.75
2023-08-08T03:54:06.204Z,22.88
2023-08-08T03:56:32.540Z,16.13
2023-08-08T03:58:58.883Z,19.52
2023-08-08T04:01:25.365Z,16.38
2023-08-08T04:03:51.763Z,20.02
2023-08-08T04:06:18.102Z,21.13
2023-08-08T04:08:44.485Z,21.50
2023-08-08T04:11:10.846Z,26.35
2023-08-08T04:13:37.929Z,12.52
2023-08-08T04:16:04.337Z,16.77
2023-08-08T04:18:30.681Z,15.43
2023-08-08T04:20:57.036Z,19.60
2023-08-08T04:23:26.482Z,17.05
2023-08-08T04:25:53.392Z,20.20
2023-08-08T04:28:20.205Z,11.95
2023-08-08T04:30:46.627Z,24.65
2023-08-08T04:33:13.014Z,20.75
2023-08-08T04:35:39.356Z,12.15
2023-08-08T04:38:05.809Z,19.35
2023-08-08T04:40:32.244Z,17.38
2023-08-08T04:42:58.645Z,15.65
2023-08-08T04:45:28.236Z,16.90
2023-08-08T04:47:54.553Z,13.93
2023-08-08T04:50:20.905Z,20.88
2023-08-08T04:52:47.193Z,15.75
2023-08-08T04:55:13.637Z,15.20
2023-08-08T04:57:39.982Z,23.13
2023-08-08T05:00:09.287Z,20.35
2023-08-08T05:02:36.246Z,18.33
2023-08-08T05:05:02.815Z,21.67
2023-08-08T05:07:29.159Z,17.15
2023-08-08T05:09:55.524Z,17.40
2023-08-08T05:12:21.895Z,17.08
2023-08-08T05:14:48.176Z,14.88
2023-08-08T05:17:14.557Z,15.27
2023-08-08T05:19:40.848Z,21.42
2023-08-08T05:22:07.310Z,17.73
2023-08-08T05:24:33.756Z,16.30
2023-08-08T05:27:00.104Z,13.80
2023-08-08T05:29:26.435Z,18.30
2023-08-08T05:31:53.940Z,18.75
2023-08-08T05:34:20.332Z,15.75
2023-08-08T05:36:46.725Z,17.90
2023-08-08T05:39:13.042Z,16.90
2023-08-08T05:41:39.381Z,12.05
2023-08-08T05:44:05.718Z,9.43
2023-08-08T05:46:32.168Z,22.20
2023-08-08T05:48:58.498Z,15.98
2023-08-08T05:51:24.885Z,13.43
2023-08-08T05:53:51.258Z,9.23
2023-08-08T05:56:17.575Z,10.80
2023-08-08T05:58:43.988Z,11.38
2023-08-08T06:01:12.866Z,9.57
2023-08-08T06:03:39.471Z,12.80
2023-08-08T06:06:06.172Z,9.85
2023-08-08T06:08:32.953Z,8.63
2023-08-08T06:10:59.498Z,11.23
2023-08-08T06:13:25.915Z,8.05
2023-08-08T06:15:52.309Z,7.35
2023-08-08T06:18:18.701Z,10.13
2023-08-08T06:20:45.164Z,11.23
2023-08-08T06:23:11.801Z,6.82
2023-08-08T06:25:39.694Z,9.05
2023-08-08T06:28:07.540Z,9.00
2023-08-08T06:30:34.018Z,4.28
2023-08-08T06:33:00.448Z,5.30
2023-08-08T06:35:26.937Z,11.65
2023-08-08T06:37:53.378Z,11.30
2023-08-08T06:40:19.771Z,13.05
2023-08-08T06:42:46.122Z,9.98
2023-08-08T06:45:12.480Z,5.45
2023-08-08T06:47:39.111Z,6.10
2023-08-08T06:50:06.326Z,8.38
2023-08-08T06:52:32.751Z,12.13
2023-08-08T06:54:59.109Z,8.45
2023-08-08T06:57:25.590Z,5.88
2023-08-08T06:59:53.814Z,5.40
2023-08-08T07:02:20.975Z,6.78
2023-08-08T07:04:47.492Z,4.80
2023-08-08T07:07:13.825Z,7.15
2023-08-08T07:09:40.238Z,6.35
2023-08-08T07:12:07.087Z,8.52
2023-08-08T07:14:33.933Z,4.78
2023-08-08T07:17:00.521Z,6.20
2023-08-08T07:19:26.913Z,6.53
2023-08-08T07:21:53.241Z,4.00
2023-08-08T07:24:20.916Z,9.50
2023-08-08T07:26:47.416Z,5.75
2023-08-08T07:29:13.925Z,7.50
2023-08-08T07:31:40.278Z,8.27
2023-08-08T07:34:06.584Z,3.53
2023-08-08T07:36:32.942Z,7.32
2023-08-08T07:39:01.086Z,4.38
2023-08-08T07:41:28.141Z,2.53
2023-08-08T07:43:54.679Z,6.68
2023-08-08T07:46:21.163Z,4.47
2023-08-08T07:48:47.587Z,4.75
2023-08-08T07:51:13.923Z,3.10
2023-08-08T07:53:40.262Z,11.23
2023-08-08T07:56:06.647Z,4.55
2023-08-08T07:58:33.728Z,5.57
2023-08-08T08:01:03.370Z,3.55
2023-08-08T08:03:29.934Z,3.83
2023-08-08T08:05:56.353Z,2.72
2023-08-08T08:08:22.779Z,5.15
2023-08-08T08:10:49.524Z,5.53
2023-08-08T08:13:15.925Z,4.80
2023-08-08T08:15:42.322Z,2.10
2023-08-08T08:18:08.675Z,3.15
2023-08-08T08:20:35.222Z,6.20
2023-08-08T08:23:01.792Z,3.42
2023-08-08T08:25:28.155Z,2.55
2023-08-08T08:27:54.475Z,4.60
2023-08-08T08:30:20.910Z,4.53
2023-08-08T08:32:47.314Z,7.72
2023-08-08T08:35:14.221Z,2.88
2023-08-08T08:37:40.551Z,2.83
2023-08-08T08:40:07.174Z,1.70
2023-08-08T08:42:34.321Z,4.15
2023-08-08T08:45:02.237Z,2.00
2023-08-08T08:47:30.964Z,9.07
2023-08-08T08:49:57.624Z,1.75
2023-08-08T08:52:24.136Z,1.23
2023-08-08T08:54:54.058Z,1.83
2023-08-08T08:57:22.244Z,8.77
2023-08-08T08:59:48.632Z,6.78
2023-08-08T09:02:15.169Z,2.65
2023-08-08T09:04:41.512Z,3.95
2023-08-08T09:07:07.990Z,1.33
2023-08-08T09:09:34.437Z,2.67
2023-08-08T09:12:02.460Z,1.20
2023-08-08T09:14:29.047Z,2.50
2023-08-08T09:16:55.593Z,3.40
2023-08-08T09:19:22.737Z,2.78
2023-08-08T09:21:49.177Z,1.23
2023-08-08T09:24:15.517Z,7.82
2023-08-08T09:26:42.518Z,2.55
2023-08-08T09:29:09.104Z,6.80
2023-08-08T09:31:35.939Z,3.08
2023-08-08T09:34:03.211Z,1.60
2023-08-08T09:36:30.686Z,3.35
2023-08-08T09:38:58.781Z,1.90
2023-08-08T09:41:25.409Z,1.42
2023-08-08T09:43:52.749Z,1.85
2023-08-08T09:46:22.559Z,3.08
2023-08-08T09:48:49.375Z,2.65
2023-08-08T09:51:16.016Z,4.78
2023-08-08T09:53:42.660Z,1.15
2023-08-08T09:56:09.487Z,2.72
2023-08-08T09:58:35.934Z,2.33
2023-08-08T10:01:02.328Z,1.95
2023-08-08T10:03:29.597Z,3.22
2023-08-08T10:05:56.049Z,3.38
2023-08-08T10:08:22.950Z,4.68
2023-08-08T10:10:50.518Z,4.03
2023-08-08T10:13:20.524Z,2.10
2023-08-08T10:15:47.029Z,0.98
2023-08-08T10:18:14.013Z,2.20
2023-08-08T10:20:43.067Z,0.95
2023-08-08T10:23:09.533Z,2.70
2023-08-08T10:25:36.835Z,5.38
2023-08-08T10:28:26.944Z,2.15
2023-08-08T10:30:53.995Z,3.03
2023-08-08T10:33:21.104Z,6.60
2023-08-08T10:36:04.583Z,7.53
2023-08-08T10:38:41.154Z,2.78
2023-08-08T10:41:10.348Z,1.23
2023-08-08T10:43:36.673Z,2.15
2023-08-08T10:46:12.781Z,1.92
2023-08-08T10:48:50.236Z,4.55
2023-08-08T10:51:17.962Z,0.68
2023-08-08T10:53:44.689Z,6.13
2023-08-08T10:56:13.339Z,1.88
2023-08-08T10:58:42.921Z,3.25
2023-08-08T11:01:10.261Z,4.10
2023-08-08T11:03:37.806Z,2.25
2023-08-08T11:06:04.527Z,1.63
2023-08-08T11:08:32.581Z,2.42
2023-08-08T11:11:00.136Z,0.85
2023-08-08T11:13:26.682Z,4.28
2023-08-08T11:15:56.252Z,2.67
2023-08-08T11:18:23.082Z,1.23
2023-08-08T11:20:50.075Z,4.28
2023-08-08T11:23:18.272Z,1.15
2023-08-08T11:25:46.279Z,1.58
2023-08-08T11:28:13.677Z,4.45
2023-08-08T11:30:43.649Z,2.78
2023-08-08T11:35:44.637Z,0.87
2023-08-08T11:38:11.049Z,2.42
2023-08-08T11:40:37.407Z,6.28
2023-08-08T11:43:03.846Z,1.70
2023-08-08T11:45:30.248Z,1.75
2023-08-08T11:47:57.298Z,5.50
2023-08-08T11:50:24.849Z,4.93
2023-08-08T11:52:55.079Z,6.15
2023-08-08T11:57:51.633Z,1.17
2023-08-08T12:00:19.019Z,4.38
2023-08-08T12:02:46.042Z,3.00
2023-08-08T12:05:13.910Z,3.38
2023-08-08T12:07:45.685Z,2.33
2023-08-08T12:10:20.866Z,6.35
2023-08-08T12:12:48.212Z,2.90
2023-08-08T12:15:16.791Z,1.83
2023-08-08T12:17:43.956Z,1.55
2023-08-08T12:20:11.214Z,3.88
2023-08-08T12:22:38.063Z,7.18
2023-08-08T12:25:04.627Z,5.90
2023-08-08T12:27:31.576Z,1.73
2023-08-08T12:29:58.131Z,2.25
2023-08-08T12:32:27.862Z,3.08
2023-08-08T12:34:54.303Z,3.65
2023-08-08T12:37:20.711Z,0.65
2023-08-08T12:39:47.508Z,3.40
2023-08-08T12:42:13.943Z,6.50
2023-08-08T12:44:40.364Z,2.50
2023-08-08T12:47:06.936Z,3.92
2023-08-08T12:49:33.365Z,1.20
2023-08-08T12:51:59.725Z,4.25
2023-08-08T12:54:27.186Z,2.28
2023-08-08T12:56:53.626Z,5.55
2023-08-08T12:59:20.016Z,2.25
2023-08-08T13:01:46.392Z,3.60
2023-08-08T13:04:19.533Z,4.35
2023-08-08T13:06:48.122Z,0.70
2023-08-08T13:09:14.827Z,1.48
2023-08-08T13:11:41.215Z,11.68
2023-08-08T13:14:07.605Z,2.38
2023-08-08T13:16:34.175Z,6.85
2023-08-08T13:19:00.721Z,2.05
2023-08-08T13:21:27.088Z,2.88
2023-08-08T13:23:53.446Z,3.90
2023-08-08T13:26:19.824Z,2.13
2023-08-08T13:28:46.387Z,1.80
2023-08-08T13:31:12.846Z,3.70
2023-08-08T13:33:39.310Z,4.53
2023-08-08T13:36:05.942Z,3.08
2023-08-08T13:38:32.316Z,2.75
2023-08-08T13:40:58.937Z,5.20
2023-08-08T13:43:25.703Z,7.47
2023-08-08T13:45:52.195Z,7.53
2023-08-08T13:48:18.891Z,2.95
2023-08-08T13:50:45.246Z,6.35
2023-08-08T13:53:11.589Z,5.63
2023-08-08T13:55:41.133Z,3.28
2023-08-08T13:58:07.669Z,5.00
2023-08-08T14:00:34.182Z,9.68
2023-08-08T14:03:01.815Z,3.40
2023-08-08T14:05:29.297Z,2.90
2023-08-08T14:07:55.862Z,3.35
2023-08-08T14:10:22.240Z,1.00
2023-08-08T14:12:48.577Z,5.50
2023-08-08T14:15:15.056Z,5.05
2023-08-08T14:17:41.406Z,4.15
2023-08-08T14:20:08.232Z,6.65
2023-08-08T14:22:35.160Z,3.45
2023-08-08T14:25:01.466Z,1.92
2023-08-08T14:27:27.775Z,5.68
2023-08-08T14:29:54.194Z,3.58
2023-08-08T14:32:20.678Z,1.92
2023-08-08T14:34:47.106Z,2.78
2023-08-08T14:37:13.547Z,3.10
2023-08-08T14:39:39.924Z,3.42
2023-08-08T14:42:06.324Z,2.10
2023-08-08T14:44:32.743Z,4.97
2023-08-08T14:46:59.609Z,4.00
2023-08-08T14:49:27.001Z,3.58
2023-08-08T14:51:53.619Z,6.28
2023-08-08T14:54:20.018Z,3.03
2023-08-08T14:56:46.361Z,4.03
2023-08-08T14:59:12.727Z,1.92
2023-08-08T15:01:39.159Z,4.15
2023-08-08T15:04:05.875Z,2.15
2023-08-08T15:06:32.964Z,4.78
2023-08-08T15:08:59.257Z,2.13
2023-08-08T15:11:25.653Z,3.00
2023-08-08T15:13:52.018Z,3.53
2023-08-08T15:16:18.464Z,1.90
2023-08-08T15:18:44.861Z,4.95
2023-08-08T15:21:11.380Z,5.57
2023-08-08T15:23:37.838Z,4.47
2023-08-08T15:26:04.279Z,3.33
2023-08-08T15:28:30.603Z,1.85
2023-08-08T15:30:57.085Z,6.45
2023-08-08T15:33:23.628Z,9.35
2023-08-08T15:35:51.389Z,10.00
2023-08-08T15:38:17.764Z,7.22
2023-08-08T15:40:44.208Z,4.15
2023-08-08T15:43:10.615Z,5.45
2023-08-08T15:45:36.965Z,4.78
2023-08-08T15:48:03.962Z,6.38
2023-08-08T15:50:30.500Z,6.78
2023-08-08T15:52:58.116Z,4.28
2023-08-08T15:55:24.477Z,11.10
2023-08-08T15:57:50.860Z,3.28
2023-08-08T16:00:17.302Z,4.95
2023-08-08T16:02:43.737Z,7.55
2023-08-08T16:05:10.790Z,6.00
2023-08-08T16:07:37.310Z,6.82
2023-08-08T16:10:04.936Z,6.35
2023-08-08T16:12:31.324Z,4.32
2023-08-08T16:14:57.722Z,4.72
2023-08-08T16:17:24.103Z,4.70
2023-08-08T16:19:50.414Z,4.53
2023-08-08T16:22:16.743Z,5.65
2023-08-08T16:24:43.146Z,2.88
2023-08-08T16:27:09.523Z,1.75
2023-08-08T16:29:35.934Z,3.20
2023-08-08T16:32:02.330Z,7.32
2023-08-08T16:34:31.769Z,2.90
2023-08-08T16:36:58.277Z,5.07
2023-08-08T16:39:24.629Z,3.58
2023-08-08T16:41:50.917Z,9.93
2023-08-08T16:44:17.359Z,6.65
2023-08-08T16:46:43.853Z,5.55
2023-08-08T16:49:10.368Z,8.13
2023-08-08T16:51:36.708Z,1.70
2023-08-08T16:54:03.256Z,9.07
2023-08-08T16:56:31.079Z,5.65
2023-08-08T16:58:57.607Z,6.63
2023-08-08T17:01:24.076Z,9.38
2023-08-08T17:03:50.423Z,3.55
2023-08-08T17:06:16.896Z,2.90
2023-08-08T17:08:43.224Z,6.28
2023-08-08T17:11:09.669Z,11.27
2023-08-08T17:13:36.000Z,4.38
2023-08-08T17:16:02.387Z,4.50
2023-08-08T17:18:28.834Z,6.50
2023-08-08T17:20:55.268Z,10.48
2023-08-08T17:23:21.841Z,1.75
2023-08-08T17:25:48.197Z,3.20
2023-08-08T17:28:14.552Z,5.15
2023-08-08T17:30:41.151Z,2.55
2023-08-08T17:33:07.533Z,3.90
2023-08-08T17:35:35.016Z,4.30
2023-08-08T17:38:01.825Z,3.15
2023-08-08T17:40:28.174Z,4.22
2023-08-08T17:42:54.497Z,5.45
2023-08-08T17:45:20.917Z,4.63
2023-08-08T17:47:47.490Z,3.03
2023-08-08T17:50:13.843Z,7.15
2023-08-08T17:52:40.256Z,5.03
2023-08-08T17:55:06.749Z,4.95
2023-08-08T17:57:33.121Z,2.65
2023-08-08T17:59:59.389Z,2.08
2023-08-08T18:02:26.092Z,5.68
2023-08-08T18:04:53.501Z,3.55
2023-08-08T18:07:22.395Z,4.28
2023-08-08T18:09:51.217Z,4.80
2023-08-08T18:12:17.912Z,4.22
2023-08-08T18:14:44.264Z,8.80
2023-08-08T18:17:10.736Z,5.20
2023-08-08T18:19:37.135Z,6.47
2023-08-08T18:22:04.413Z,5.90
2023-08-08T18:24:31.201Z,7.63
2023-08-08T18:26:58.299Z,6.68
2023-08-08T18:29:24.733Z,7.30
2023-08-08T18:31:51.229Z,3.50
2023-08-08T18:34:17.909Z,6.32
2023-08-08T18:36:45.000Z,4.72
2023-08-08T18:39:11.567Z,4.00
2023-08-08T18:41:37.896Z,4.90
2023-08-08T18:44:06.268Z,4.30
2023-08-08T18:46:34.573Z,3.72
2023-08-08T18:49:01.700Z,4.57
2023-08-08T18:51:28.021Z,3.80
2023-08-08T18:53:54.558Z,10.27
2023-08-08T18:56:20.928Z,3.80
2023-08-08T18:58:47.521Z,6.55
2023-08-08T19:01:13.940Z,4.57
2023-08-08T19:03:40.359Z,6.60
2023-08-08T19:06:06.820Z,4.25
2023-08-08T19:08:33.145Z,7.50
2023-08-08T19:10:59.503Z,3.42
2023-08-08T19:13:26.192Z,10.27
2023-08-08T19:15:52.747Z,4.07
2023-08-08T19:18:19.151Z,6.43
2023-08-08T19:20:48.491Z,9.85
2023-08-08T19:23:15.588Z,12.82
2023-08-08T19:25:42.556Z,7.63
2023-08-08T19:28:09.095Z,10.55
2023-08-08T19:30:35.553Z,5.47
2023-08-08T19:33:01.993Z,6.05
2023-08-08T19:35:28.438Z,6.75
2023-08-08T19:37:54.858Z,6.95
2023-08-08T19:40:21.293Z,7.88
2023-08-08T19:42:48.145Z,4.63
2023-08-08T19:45:14.766Z,8.70
2023-08-08T19:47:41.205Z,6.68
2023-08-08T19:50:07.729Z,3.03
2023-08-08T19:52:34.104Z,5.85
2023-08-08T19:55:00.396Z,4.40
2023-08-08T19:57:26.763Z,2.92
2023-08-08T19:59:54.864Z,18.23
2023-08-08T20:02:21.841Z,3.47
2023-08-08T20:04:48.202Z,6.65
2023-08-08T20:07:14.487Z,4.63
2023-08-08T20:09:40.862Z,5.72
2023-08-08T20:12:07.636Z,4.85
2023-08-08T20:14:33.973Z,3.63
2023-08-08T20:17:00.724Z,5.13
2023-08-08T20:19:27.289Z,3.05
2023-08-08T20:21:55.462Z,6.97
2023-08-08T20:24:23.596Z,7.55
2023-08-08T20:26:50.015Z,6.47
2023-08-08T20:29:16.332Z,5.30
2023-08-08T20:31:43.703Z,8.60
2023-08-08T20:34:10.167Z,8.18
2023-08-08T20:36:36.583Z,7.65
2023-08-08T20:39:05.203Z,7.88
2023-08-08T20:41:31.511Z,4.53
2023-08-08T20:43:57.873Z,7.30
2023-08-08T20:46:24.212Z,7.45
2023-08-08T20:48:52.051Z,4.50
2023-08-08T20:51:18.463Z,5.80
2023-08-08T20:53:44.891Z,5.28
2023-08-08T20:56:11.282Z,3.50
2023-08-08T20:58:37.693Z,6.85
2023-08-08T21:01:04.081Z,6.82
2023-08-08T21:03:30.809Z,4.57
2023-08-08T21:05:57.143Z,6.38
2023-08-08T21:08:23.534Z,6.30
2023-08-08T21:10:49.920Z,5.53
2023-08-08T21:13:16.245Z,6.93
2023-08-08T21:15:42.611Z,6.40
2023-08-08T21:18:09.075Z,6.15
2023-08-08T21:20:35.708Z,7.10
2023-08-08T21:23:02.065Z,5.22
2023-08-08T21:25:28.491Z,10.27
2023-08-08T21:27:54.851Z,4.15
2023-08-08T21:30:21.354Z,4.25
2023-08-08T21:32:47.721Z,4.18
2023-08-08T21:35:14.115Z,3.42
2023-08-08T21:37:41.202Z,4.20
2023-08-08T21:40:08.104Z,2.85
2023-08-08T21:42:34.436Z,5.60
2023-08-08T21:45:02.342Z,3.25
2023-08-08T21:47:28.770Z,3.95
2023-08-08T21:49:55.495Z,2.30
2023-08-08T21:52:21.803Z,3.35
2023-08-08T21:54:48.140Z,3.17
2023-08-08T21:57:14.469Z,2.67
2023-08-08T21:59:40.872Z,4.07
2023-08-08T22:02:07.383Z,3.05
2023-08-08T22:04:34.987Z,4.20
2023-08-08T22:07:03.668Z,1.70
2023-08-08T22:09:30.340Z,12.73
2023-08-08T22:11:56.657Z,5.05
2023-08-08T22:14:23.049Z,3.63
2023-08-08T22:16:49.419Z,3.35
2023-08-08T22:19:15.917Z,5.88
2023-08-08T22:21:42.265Z,2.50
2023-08-08T22:24:08.739Z,6.05
2023-08-08T22:26:35.623Z,3.08
2023-08-08T22:29:02.096Z,3.55
2023-08-08T22:31:28.709Z,2.97
2023-08-08T22:33:55.466Z,3.83
2023-08-08T22:36:21.868Z,7.07
2023-08-08T22:38:48.207Z,4.95
2023-08-08T22:41:14.604Z,3.40
2023-08-08T22:43:41.042Z,7.82
2023-08-08T22:46:07.399Z,4.75
2023-08-08T22:48:33.907Z,5.63
2023-08-08T22:51:00.296Z,6.63
2023-08-08T22:53:26.731Z,5.28
2023-08-08T22:55:53.395Z,5.10
2023-08-08T22:58:19.877Z,5.00
2023-08-08T23:00:46.602Z,5.28
2023-08-08T23:03:13.392Z,6.18
2023-08-08T23:05:39.870Z,6.75
2023-08-08T23:08:06.366Z,6.95
2023-08-08T23:10:32.857Z,7.60
2023-08-08T23:12:59.232Z,7.45
2023-08-08T23:15:25.609Z,8.55
2023-08-08T23:17:52.030Z,10.27
2023-08-08T23:20:18.592Z,7.55
2023-08-08T23:22:44.937Z,9.18
2023-08-08T23:25:11.312Z,9.20
2023-08-08T23:27:37.665Z,13.82
2023-08-08T23:30:06.472Z,9.93
2023-08-08T23:32:32.866Z,13.60
2023-08-08T23:34:59.263Z,11.40
2023-08-08T23:37:25.608Z,12.30
2023-08-08T23:39:52.069Z,12.48
2023-08-08T23:42:18.548Z,14.15
2023-08-08T23:44:44.888Z,15.30
2023-08-08T23:47:11.259Z,15.55
2023-08-08T23:49:37.771Z,16.02
2023-08-08T23:52:04.233Z,23.30
2023-08-08T23:54:30.811Z,14.73
2023-08-08T23:56:57.235Z,15.68
2023-08-08T23:59:23.733Z,15.50
